RKSY/SSN METAR and TAF weather

Enter ICAO airport designator
Station Type Date Time Source
RKSY METAR 2019/04/26 03:58 UTC NOAA

RKSY 260358Z AUTO 04005KT 9999 OVC033 11/04 A2989 RMK AO2 SLP125 T01090044 $


Station Type Date Time Source
RKSY Decoded METAR 2019/04/26 03:58 UTC NOAA

Yongsan / H-208 Hp, Korea, South (RKSY) 37-31N 126-59E
Apr 25, 2019 - 11:58 PM EDT / 2019.04.26 0358 UTC
Wind: from the NE (040 degrees) at 6 MPH (5 KT):0
Visibility: greater than 7 mile(s):0
Sky conditions: overcast
Temperature: 51.6 F (10.9 C)
Dew Point: 39.9 F (4.4 C)
Relative Humidity: 64%
Pressure (altimeter): 29.89 in. Hg (1012 hPa)
ob: RKSY 260358Z AUTO 04005KT 9999 OVC033 11/04 A2989 RMK AO2 SLP125 T01090044
cycle: 4

Station Type Date Time Source
RKSY TAF UTC NOAA

Error!

Example: see airport list